Stolt Ami — 3EAZ5 — position and weather

sailwx.info

Track history (hours):
 
Tides and Currents Weather Stations Pressure Air Temp Water Temp Dewpoint Dewpoint Depression Visibility Wind Speed Wind Dir Waves Ship Positions

Stolt Ami

Last reported at 2016-Aug-24 22:14 UTC. Time now 2016-Aug-26 13:43 UTC.
Position N 35°58' W 011°38'.

Length 143 m; draft 9.1 m.

Type: Ship (hazmat cat B). MMSI: 371392514.

Date/timePositionNaut miles runAvg speedWind from/ knotsBaromVisibWave heightAir tempDewpointWater temp
2016-Aug-24 22:14N 35°58' W 011°38'1014.1
2016-Aug-24 21:33N 35°58' W 011°26'1414.1
2016-Aug-24 20:33N 35°58' W 011°09'1414.2
2016-Aug-24 19:33N 35°58' W 010°52'1414.0
2016-Aug-24 18:34N 35°58' W 010°34'1414.0
2016-Aug-24 17:32N 35°57' W 010°17'4514.0
2016-Aug-24 14:17N 35°58' W 009°21'1013.7
2016-Aug-24 13:33N 35°58' W 009°08'1413.7
2016-Aug-24 12:32N 35°59' W 008°51'1514.1
2016-Aug-24 11:30N 35°59' W 008°33'1414.3
2016-Aug-24 10:33N 35°58' W 008°16'13314.5
2016-Aug-24 01:23N 35°59' W 005°32'1011.6
2016-Aug-24 00:32N 36°06' W 005°24'4 3.3
2016-Aug-23 23:25N 36°10' W 005°24'0 0.0
2016-Aug-23 22:28N 36°10' W 005°24'0 0.0
2016-Aug-23 21:31N 36°10' W 005°24'0 0.1
2016-Aug-23 20:28N 36°10' W 005°24'0 0.0
2016-Aug-23 19:13N 36°10' W 005°24'0 0.0
2016-Aug-23 16:30N 36°10' W 005°24'0 0.0
2016-Aug-23 15:24N 36°10' W 005°24'0 0.0
2016-Aug-23 14:32N 36°10' W 005°24'0 0.0
2016-Aug-23 13:33N 36°10' W 005°24'0 0.0
2016-Aug-23 12:33N 36°10' W 005°24'0 0.0
2016-Aug-23 11:33N 36°10' W 005°24'0 0.0
2016-Aug-23 10:32N 36°10' W 005°24'0 0.0
2016-Aug-23 09:33N 36°10' W 005°24'0 0.1
2016-Aug-23 08:33N 36°10' W 005°23'2 2.2
2016-Aug-23 07:32N 36°08' W 005°24'6 6.1
2016-Aug-23 06:33N 36°03' W 005°20'1 0.7
2016-Aug-23 05:33N 36°03' W 005°19'2 1.8
2016-Aug-23 04:33N 36°04' W 005°20'3 3.1
2016-Aug-23 03:33N 36°03' W 005°17'1 1.0
2016-Aug-23 02:33N 36°03' W 005°18'1 0.7
2016-Aug-23 01:33N 36°03' W 005°19'1 1.1
2016-Aug-23 00:34N 36°04' W 005°17'1 0.7
2016-Aug-22 23:33N 36°04' W 005°18'0 0.5
2016-Aug-22 22:33N 36°04' W 005°18'6 6.4
2016-Aug-22 21:33N 36°05' W 005°10'9513.1
2016-Aug-22 14:18N 36°20' W 003°13'1213.9
2016-Aug-22 13:26N 36°22' W 002°59'1213.9
2016-Aug-22 12:33N 36°25' W 002°44'1414.1
2016-Aug-22 11:34N 36°27' W 002°26'28714.1
2016-Aug-21 15:12N 37°18' E 003°27'25314.3
2016-Aug-20 21:33N 37°42' E 008°44'4213.8
2016-Aug-20 18:31N 37°41' E 009°37'2114.5
2016-Aug-20 17:03N 37°39' E 010°04'1214.8
2016-Aug-20 16:15N 37°39' E 010°19'1214.7
2016-Aug-20 15:27N 37°39' E 010°34'1314.6
2016-Aug-20 14:33N 37°38' E 010°50'3514.3
2016-Aug-20 12:08N 37°21' E 011°28'813.6
2016-Aug-20 11:33N 37°17' E 011°36'1413.7
2016-Aug-20 10:33N 37°09' E 011°51'1313.6
2016-Aug-20 09:33N 37°03' E 012°06'1413.8
2016-Aug-20 08:34N 36°57' E 012°22'1414.1
2016-Aug-20 07:34N 36°52' E 012°38'1414.3
2016-Aug-20 06:33N 36°46' E 012°54'1414.1
2016-Aug-20 05:34N 36°41' E 013°11'1413.9
2016-Aug-20 04:33N 36°34' E 013°26'1413.8
2016-Aug-20 03:33N 36°28' E 013°41'1313.5
2016-Aug-20 02:34N 36°23' E 013°57'1413.6
2016-Aug-20 01:34N 36°18' E 014°13'1413.6
2016-Aug-20 00:34N 36°14' E 014°29'1413.9
2016-Aug-19 23:33N 36°09' E 014°45'1413.8
2016-Aug-19 22:33N 36°04' E 015°01'1413.5
2016-Aug-19 21:33N 36°00' E 015°17'1413.7
2016-Aug-19 20:33N 36°00' E 015°34'36313.8
2016-Aug-18 18:13N 35°59' E 023°03'912.9
2016-Aug-18 17:33N 36°06' E 023°10'1414.2
2016-Aug-18 16:33N 36°18' E 023°19'1413.9
2016-Aug-18 15:33N 36°31' E 023°27'1413.8
2016-Aug-18 14:33N 36°42' E 023°36'1414.4
2016-Aug-18 13:33N 36°55' E 023°44'1515.3
2016-Aug-18 12:33N 37°09' E 023°53'1414.5
2016-Aug-18 11:33N 37°20' E 024°05'2914.4
2016-Aug-18 09:33N 37°39' E 024°32'1515.4
2016-Aug-18 08:34N 37°54' E 024°35'3114.2
2016-Aug-18 06:22N 38°24' E 024°47'2814.6
2016-Aug-18 04:27N 38°48' E 025°04'6114.6
2016-Aug-18 00:17N 39°42' E 025°40'1615.1
2016-Aug-17 23:15N 39°56' E 025°49'1115.1
2016-Aug-17 22:31N 40°01' E 026°02'1813.3
2016-Aug-17 21:08N 40°10' E 026°23'1114.3
2016-Aug-17 20:21N 40°18' E 026°34'  
Track history (hours):
 
Tides and Currents Weather Stations Pressure Air Temp Water Temp Dewpoint Dewpoint Depression Visibility Wind Speed Wind Dir Waves Ship Positions

Stolt Ami

Last reported at 2016-Aug-24 22:14 UTC. Time now 2016-Aug-26 13:43 UTC.
Position N 35°58' W 011°38'.

Length 143 m; draft 9.1 m.

Type: Ship (hazmat cat B). MMSI: 371392514.

Date/timePositionNaut miles runAvg speedWind from/ knotsBaromVisibWave heightAir tempDewpointWater temp
2016-Aug-24 22:14N 35°58' W 011°38'1014.1
2016-Aug-24 21:33N 35°58' W 011°26'1414.1
2016-Aug-24 20:33N 35°58' W 011°09'1414.2
2016-Aug-24 19:33N 35°58' W 010°52'1414.0
2016-Aug-24 18:34N 35°58' W 010°34'1414.0
2016-Aug-24 17:32N 35°57' W 010°17'4514.0
2016-Aug-24 14:17N 35°58' W 009°21'1013.7
2016-Aug-24 13:33N 35°58' W 009°08'1413.7
2016-Aug-24 12:32N 35°59' W 008°51'1514.1
2016-Aug-24 11:30N 35°59' W 008°33'1414.3
2016-Aug-24 10:33N 35°58' W 008°16'13314.5
2016-Aug-24 01:23N 35°59' W 005°32'1011.6
2016-Aug-24 00:32N 36°06' W 005°24'4 3.3
2016-Aug-23 23:25N 36°10' W 005°24'0 0.0
2016-Aug-23 22:28N 36°10' W 005°24'0 0.0
2016-Aug-23 21:31N 36°10' W 005°24'0 0.1
2016-Aug-23 20:28N 36°10' W 005°24'0 0.0
2016-Aug-23 19:13N 36°10' W 005°24'0 0.0
2016-Aug-23 16:30N 36°10' W 005°24'0 0.0
2016-Aug-23 15:24N 36°10' W 005°24'0 0.0
2016-Aug-23 14:32N 36°10' W 005°24'0 0.0
2016-Aug-23 13:33N 36°10' W 005°24'0 0.0
2016-Aug-23 12:33N 36°10' W 005°24'0 0.0
2016-Aug-23 11:33N 36°10' W 005°24'0 0.0
2016-Aug-23 10:32N 36°10' W 005°24'0 0.0
2016-Aug-23 09:33N 36°10' W 005°24'0 0.1
2016-Aug-23 08:33N 36°10' W 005°23'2 2.2
2016-Aug-23 07:32N 36°08' W 005°24'6 6.1
2016-Aug-23 06:33N 36°03' W 005°20'1 0.7
2016-Aug-23 05:33N 36°03' W 005°19'2 1.8
2016-Aug-23 04:33N 36°04' W 005°20'3 3.1
2016-Aug-23 03:33N 36°03' W 005°17'1 1.0
2016-Aug-23 02:33N 36°03' W 005°18'1 0.7
2016-Aug-23 01:33N 36°03' W 005°19'1 1.1
2016-Aug-23 00:34N 36°04' W 005°17'1 0.7
2016-Aug-22 23:33N 36°04' W 005°18'0 0.5
2016-Aug-22 22:33N 36°04' W 005°18'6 6.4
2016-Aug-22 21:33N 36°05' W 005°10'9513.1
2016-Aug-22 14:18N 36°20' W 003°13'1213.9
2016-Aug-22 13:26N 36°22' W 002°59'1213.9
2016-Aug-22 12:33N 36°25' W 002°44'1414.1
2016-Aug-22 11:34N 36°27' W 002°26'28714.1
2016-Aug-21 15:12N 37°18' E 003°27'25314.3
2016-Aug-20 21:33N 37°42' E 008°44'4213.8
2016-Aug-20 18:31N 37°41' E 009°37'2114.5
2016-Aug-20 17:03N 37°39' E 010°04'1214.8
2016-Aug-20 16:15N 37°39' E 010°19'1214.7
2016-Aug-20 15:27N 37°39' E 010°34'1314.6
2016-Aug-20 14:33N 37°38' E 010°50'3514.3
2016-Aug-20 12:08N 37°21' E 011°28'813.6
2016-Aug-20 11:33N 37°17' E 011°36'1413.7
2016-Aug-20 10:33N 37°09' E 011°51'1313.6
2016-Aug-20 09:33N 37°03' E 012°06'1413.8
2016-Aug-20 08:34N 36°57' E 012°22'1414.1
2016-Aug-20 07:34N 36°52' E 012°38'1414.3
2016-Aug-20 06:33N 36°46' E 012°54'1414.1
2016-Aug-20 05:34N 36°41' E 013°11'1413.9
2016-Aug-20 04:33N 36°34' E 013°26'1413.8
2016-Aug-20 03:33N 36°28' E 013°41'1313.5
2016-Aug-20 02:34N 36°23' E 013°57'1413.6
2016-Aug-20 01:34N 36°18' E 014°13'1413.6
2016-Aug-20 00:34N 36°14' E 014°29'1413.9
2016-Aug-19 23:33N 36°09' E 014°45'1413.8
2016-Aug-19 22:33N 36°04' E 015°01'1413.5
2016-Aug-19 21:33N 36°00' E 015°17'1413.7
2016-Aug-19 20:33N 36°00' E 015°34'36313.8
2016-Aug-18 18:13N 35°59' E 023°03'912.9
2016-Aug-18 17:33N 36°06' E 023°10'1414.2
2016-Aug-18 16:33N 36°18' E 023°19'1413.9
2016-Aug-18 15:33N 36°31' E 023°27'1413.8
2016-Aug-18 14:33N 36°42' E 023°36'1414.4
2016-Aug-18 13:33N 36°55' E 023°44'1515.3
2016-Aug-18 12:33N 37°09' E 023°53'1414.5
2016-Aug-18 11:33N 37°20' E 024°05'2914.4
2016-Aug-18 09:33N 37°39' E 024°32'1515.4
2016-Aug-18 08:34N 37°54' E 024°35'3114.2
2016-Aug-18 06:22N 38°24' E 024°47'2814.6
2016-Aug-18 04:27N 38°48' E 025°04'6114.6
2016-Aug-18 00:17N 39°42' E 025°40'1615.1
2016-Aug-17 23:15N 39°56' E 025°49'1115.1
2016-Aug-17 22:31N 40°01' E 026°02'1813.3
2016-Aug-17 21:08N 40°10' E 026°23'1114.3
2016-Aug-17 20:21N 40°18' E 026°34'  

Dump ship's entire track history